Time;durP1;ratioP1;P1;durP2;ratioP2;P2;SDS_P1;SDS_P2;PMS_P1;PMS_P2;Temp;Humidity;BMP_temperature;BMP_pressure;BME280_temperature;BME280_humidity;BME280_pressure;Samples;Min_cycle;Max_cycle;Signal;HPM_P1;HPM_P2
2022/08/29 00:00:26;;;;;;;;;;;;;;;;;;1049243;28;3144;-50
2022/08/29 00:01:07;;;;;;;;;;;;;;;;;;1048809;28;5015;-54
2022/08/29 00:01:38;;;;;;;;;;;;;;;;;;1047871;28;4142;-53
2022/08/29 00:02:08;;;;;;;;;;;;;;;;;;1048391;28;3284;-55
2022/08/29 00:02:39;;;;;;;;;;;;;;;;;;1049595;28;3826;-49
2022/08/29 00:03:10;;;;;;;;;;;;;;;;;;1052204;28;3589;-50
2022/08/29 00:03:40;;;;;;;;;;;;;;;;;;1047667;28;4114;-49
2022/08/29 00:04:11;;;;;;;;;;;;;;;;;;1042895;28;3110;-53
2022/08/29 00:04:41;;;;;;;;;;;;;;;;;;1043935;28;3877;-52
2022/08/29 00:05:11;;;;;;;;;;;;;;;;;;1045145;28;3197;-53
2022/08/29 00:05:42;;;;;;;;;;;;;;;;;;1044973;28;4106;-51
2022/08/29 00:06:12;;;;;;;;;;;;;;;;;;1049226;28;2682;-51
2022/08/29 00:06:42;;;;;;;;;;;;;;;;;;1048677;28;3918;-51
2022/08/29 00:07:13;;;;;;;;;;;;;;;;;;1049445;28;2679;-54
2022/08/29 00:07:43;;;;;;;;;;;;;;;;;;1054269;28;4361;-53
2022/08/29 00:08:13;;;;;;;;;;;;;;;;;;1054771;28;2967;-51
2022/08/29 00:08:43;;;;;;;;;;;;;;;;;;1053186;28;3871;-52
2022/08/29 00:09:14;;;;;;;;;;;;;;;;;;1053235;28;3057;-52
2022/08/29 00:09:44;;;;;;;;;;;;;;;;;;1053466;28;3911;-50
2022/08/29 00:10:15;;;;;;;;;;;;;;;;;;1053924;28;3140;-50
2022/08/29 00:10:45;;;;;;;;;;;;;;;;;;1052649;28;3892;-47
2022/08/29 00:11:16;;;;;;;;;;;;;;;;;;1053731;28;3169;-51
2022/08/29 00:11:46;;;;;;;;;;;;;;;;;;1053699;28;3909;-51
2022/08/29 00:12:17;;;;;;;;;;;;;;;;;;1051978;28;3123;-51
2022/08/29 00:12:47;;;;;;;;;;;;;;;;;;1053013;28;4248;-51
2022/08/29 00:13:18;;;;;;;;;;;;;;;;;;1052349;28;2555;-50
2022/08/29 00:13:48;;;;;;;;;;;;;;;;;;1053812;28;4029;-49
2022/08/29 00:14:19;;;;;;;;;;;;;;;;;;1053395;28;3012;-51
2022/08/29 00:14:49;;;;;;;;;;;;;;;;;;1052529;28;3927;-54
2022/08/29 00:15:20;;;;;;;;;;;;;;;;;;1053918;28;2835;-48
2022/08/29 00:15:50;;;;;;;;;;;;;;;;;;1050410;28;4376;-51
2022/08/29 00:16:20;;;;;;;;;;;;;;;;;;1051169;28;3070;-51
2022/08/29 00:16:51;;;;;;;;;;;;;;;;;;1047436;28;4073;-52
2022/08/29 00:17:21;;;;;;;;;;;;;;;;;;1049802;28;3044;-49
2022/08/29 00:17:51;;;;;;;;;;;;;;;;;;1054598;28;4387;-51
2022/08/29 00:18:21;;;;;;;;;;;;;;;;;;1052824;28;2970;-53
2022/08/29 00:18:52;;;;;;;;;;;;;;;;;;1054182;28;4076;-49
2022/08/29 00:19:22;;;;;;;;;;;;;;;;;;1054868;28;3041;-50
2022/08/29 00:19:52;;;;;;;;;;;;;;;;;;1054155;28;4093;-52
2022/08/29 00:20:25;;;;;;;;;;;;;;;;;;1053445;28;3178;-52
2022/08/29 00:20:56;;;;;;;;;;;;;;;;;;1054624;28;3843;-54
2022/08/29 00:21:26;;;;;;;;;;;;;;;;;;1053963;28;3190;-53
2022/08/29 00:21:56;;;;;;;;;;;;;;;;;;1054517;28;3822;-48
2022/08/29 00:22:26;;;;;;;;;;;;;;;;;;1053748;28;3071;-51
2022/08/29 00:22:57;;;;;;;;;;;;;;;;;;1054235;28;3852;-53
2022/08/29 00:23:27;;;;;;;;;;;;;;;;;;1054012;28;4044;-50
2022/08/29 00:23:58;;;;;;;;;;;;;;;;;;1056261;28;1874;-49
2022/08/29 00:24:28;;;;;;;;;;;;;;;;;;1054575;28;4294;-52
2022/08/29 00:25:03;;;;;;;;;;;;;;;;;;1050104;28;2129;-52
2022/08/29 00:25:33;;;;;;;;;;;;;;;;;;1049817;28;6272;-51
2022/08/29 00:26:04;;;;;;;;;;;;;;;;;;1049765;28;3973;-49
2022/08/29 00:26:34;;;;;;;;;;;;;;;;;;1050298;28;3830;-53
2022/08/29 00:27:04;;;;;;;;;;;;;;;;;;1052602;28;3009;-54
2022/08/29 00:27:35;;;;;;;;;;;;;;;;;;1053758;28;3961;-54
2022/08/29 00:28:05;;;;;;;;;;;;;;;;;;1055351;28;3032;-49
2022/08/29 00:28:35;;;;;;;;;;;;;;;;;;1053204;28;4116;-52
2022/08/29 00:29:06;;;;;;;;;;;;;;;;;;1055266;28;2724;-51
2022/08/29 00:29:36;;;;;;;;;;;;;;;;;;1052961;28;4056;-53
2022/08/29 00:30:07;;;;;;;;;;;;;;;;;;1053826;28;3125;-51
2022/08/29 00:30:38;;;;;;;;;;;;;;;;;;1054623;28;4066;-49
2022/08/29 00:31:08;;;;;;;;;;;;;;;;;;1055209;28;3001;-50
2022/08/29 00:31:38;;;;;;;;;;;;;;;;;;1053335;28;4085;-49
2022/08/29 00:32:08;;;;;;;;;;;;;;;;;;1049161;28;3840;-49
2022/08/29 00:32:39;;;;;;;;;;;;;;;;;;1049918;28;4083;-51
2022/08/29 00:33:09;;;;;;;;;;;;;;;;;;1048865;28;3195;-52
2022/08/29 00:33:40;;;;;;;;;;;;;;;;;;1049219;28;4128;-52
2022/08/29 00:34:10;;;;;;;;;;;;;;;;;;1054393;28;2519;-50
2022/08/29 00:34:40;;;;;;;;;;;;;;;;;;1051134;28;3993;-50
2022/08/29 00:35:12;;;;;;;;;;;;;;;;;;1052956;28;3692;-52
2022/08/29 00:35:43;;;;;;;;;;;;;;;;;;1051975;28;6136;-54
2022/08/29 00:36:14;;;;;;;;;;;;;;;;;;1053555;28;3082;-51
2022/08/29 00:36:44;;;;;;;;;;;;;;;;;;1051814;28;4244;-54
2022/08/29 00:37:14;;;;;;;;;;;;;;;;;;1045164;28;3317;-53
2022/08/29 00:37:45;;;;;;;;;;;;;;;;;;1043559;28;3975;-52
2022/08/29 00:38:15;;;;;;;;;;;;;;;;;;1045401;28;3254;-52
2022/08/29 00:38:46;;;;;;;;;;;;;;;;;;1043835;28;3981;-53
2022/08/29 00:39:22;;;;;;;;;;;;;;;;;;1053735;28;3563;-52
2022/08/29 00:39:52;;;;;;;;;;;;;;;;;;1053813;28;4362;-52
2022/08/29 00:40:33;;;;;;;;;;;;;;;;;;1051962;28;3085;-51
2022/08/29 00:41:04;;;;;;;;;;;;;;;;;;1053391;28;3969;-49
2022/08/29 00:41:41;;;;;;;;;;;;;;;;;;1048045;28;4079;-52
2022/08/29 00:42:19;;;;;;;;;;;;;;;;;;1049179;28;3232;-52
2022/08/29 00:42:57;;;;;;;;;;;;;;;;;;1047840;28;4002;-50
2022/08/29 00:43:29;;;;;;;;;;;;;;;;;;1050059;28;3661;-53
2022/08/29 00:44:00;;;;;;;;;;;;;;;;;;1049448;28;3891;-52
2022/08/29 00:44:30;;;;;;;;;;;;;;;;;;1049021;28;3929;-52
2022/08/29 00:45:04;;;;;;;;;;;;;;;;;;1044107;28;3719;-51
2022/08/29 00:45:36;;;;;;;;;;;;;;;;;;1043105;28;4066;-54
2022/08/29 00:46:28;;;;;;;;;;;;;;;;;;1044879;28;3193;-51
2022/08/29 00:47:04;;;;;;;;;;;;;;;;;;1048060;28;3859;-51
2022/08/29 00:47:35;;;;;;;;;;;;;;;;;;1049064;28;4031;-51
2022/08/29 00:48:13;;;;;;;;;;;;;;;;;;1050150;28;3092;-53
2022/08/29 00:48:47;;;;;;;;;;;;;;;;;;1048139;28;3975;-52
2022/08/29 00:49:20;;;;;;;;;;;;;;;;;;1048179;28;3678;-48
2022/08/29 00:49:51;;;;;;;;;;;;;;;;;;1049801;28;3771;-53
2022/08/29 00:50:25;;;;;;;;;;;;;;;;;;1049545;28;3187;-51
2022/08/29 00:50:58;;;;;;;;;;;;;;;;;;1050113;28;3815;-50
2022/08/29 00:51:35;;;;;;;;;;;;;;;;;;1047454;28;4111;-50
2022/08/29 00:52:09;;;;;;;;;;;;;;;;;;1049940;28;3784;-53
2022/08/29 00:52:45;;;;;;;;;;;;;;;;;;1048187;28;3825;-48
2022/08/29 00:53:16;;;;;;;;;;;;;;;;;;1048727;28;3172;-54
2022/08/29 00:53:52;;;;;;;;;;;;;;;;;;1047256;28;3908;-53
2022/08/29 00:54:23;;;;;;;;;;;;;;;;;;1048179;28;3222;-51
2022/08/29 00:54:54;;;;;;;;;;;;;;;;;;1048448;28;3897;-49
2022/08/29 00:55:26;;;;;;;;;;;;;;;;;;1048906;28;3208;-51
2022/08/29 00:55:57;;;;;;;;;;;;;;;;;;1048587;28;3963;-51
2022/08/29 00:56:28;;;;;;;;;;;;;;;;;;1047721;28;3875;-53
2022/08/29 00:56:59;;;;;;;;;;;;;;;;;;1048889;28;3502;-50
2022/08/29 00:57:30;;;;;;;;;;;;;;;;;;1047547;28;3899;-50
2022/08/29 00:58:02;;;;;;;;;;;;;;;;;;1049108;28;3391;-50
2022/08/29 00:58:34;;;;;;;;;;;;;;;;;;1049036;28;3876;-52
2022/08/29 00:59:09;;;;;;;;;;;;;;;;;;1045253;28;3410;-50
2022/08/29 00:59:39;;;;;;;;;;;;;;;;;;1045683;28;3809;-53
2022/08/29 01:00:11;;;;;;;;;;;;;;;;;;1049136;28;3679;-50
2022/08/29 01:00:42;;;;;;;;;;;;;;;;;;1049283;28;4145;-52
2022/08/29 01:01:13;;;;;;;;;;;;;;;;;;1049217;28;3135;-50
2022/08/29 01:01:43;;;;;;;;;;;;;;;;;;1050201;28;4119;-48
2022/08/29 01:02:14;;;;;;;;;;;;;;;;;;1048899;28;3286;-53
2022/08/29 01:02:44;;;;;;;;;;;;;;;;;;1049618;28;3903;-50
2022/08/29 01:03:14;;;;;;;;;;;;;;;;;;1047550;28;3449;-52
2022/08/29 01:03:45;;;;;;;;;;;;;;;;;;1049408;28;4447;-50
2022/08/29 01:04:16;;;;;;;;;;;;;;;;;;1047844;28;4155;-50
2022/08/29 01:04:46;;;;;;;;;;;;;;;;;;1049430;28;4397;-52
2022/08/29 01:05:18;;;;;;;;;;;;;;;;;;1048994;28;3378;-52
2022/08/29 01:05:48;;;;;;;;;;;;;;;;;;1050028;28;3902;-53
2022/08/29 01:06:20;;;;;;;;;;;;;;;;;;1048780;28;3302;-54
2022/08/29 01:06:51;;;;;;;;;;;;;;;;;;1049713;28;3886;-50
2022/08/29 01:07:22;;;;;;;;;;;;;;;;;;1048900;28;3234;-52
2022/08/29 01:07:52;;;;;;;;;;;;;;;;;;1049930;28;3855;-51
2022/08/29 01:08:22;;;;;;;;;;;;;;;;;;1048463;28;3191;-52
2022/08/29 01:08:53;;;;;;;;;;;;;;;;;;1048194;28;3878;-52
2022/08/29 01:09:24;;;;;;;;;;;;;;;;;;1048590;28;3225;-50
2022/08/29 01:09:55;;;;;;;;;;;;;;;;;;1049782;28;4039;-51
2022/08/29 01:12:16;;;;;;;;;;;;;;;;;;1049810;28;3991;-54
2022/08/29 01:12:46;;;;;;;;;;;;;;;;;;1048444;28;3907;-51
2022/08/29 01:13:16;;;;;;;;;;;;;;;;;;1049073;28;3221;-54
2022/08/29 01:13:48;;;;;;;;;;;;;;;;;;1048052;28;4045;-48
2022/08/29 01:14:20;;;;;;;;;;;;;;;;;;1052632;28;2560;-55
2022/08/29 01:14:52;;;;;;;;;;;;;;;;;;1053352;28;3876;-50
2022/08/29 01:15:23;;;;;;;;;;;;;;;;;;1052018;28;3157;-52
2022/08/29 01:15:54;;;;;;;;;;;;;;;;;;1053288;28;3967;-52
2022/08/29 01:16:25;;;;;;;;;;;;;;;;;;1048793;28;3424;-53
2022/08/29 01:16:57;;;;;;;;;;;;;;;;;;1048204;28;3871;-52
2022/08/29 01:17:29;;;;;;;;;;;;;;;;;;1050413;28;3640;-50
2022/08/29 01:18:01;;;;;;;;;;;;;;;;;;1047920;28;3928;-53
2022/08/29 01:18:39;;;;;;;;;;;;;;;;;;1047339;28;3868;-51
2022/08/29 01:19:15;;;;;;;;;;;;;;;;;;1048061;28;2798;-51
2022/08/29 01:19:45;;;;;;;;;;;;;;;;;;1047590;28;3154;-54
2022/08/29 01:20:34;;;;;;;;;;;;;;;;;;1049198;28;3690;-53
2022/08/29 01:21:23;;;;;;;;;;;;;;;;;;1048355;28;4245;-52
2022/08/29 01:21:58;;;;;;;;;;;;;;;;;;1045123;28;1913;-53
2022/08/29 01:22:34;;;;;;;;;;;;;;;;;;1047430;28;2353;-50
2022/08/29 01:23:09;;;;;;;;;;;;;;;;;;1048568;28;2253;-48
2022/08/29 01:23:48;;;;;;;;;;;;;;;;;;1047683;28;2370;-52
2022/08/29 01:24:18;;;;;;;;;;;;;;;;;;1047054;28;2414;-51
2022/08/29 01:24:49;;;;;;;;;;;;;;;;;;1050125;28;2858;-52
2022/08/29 01:25:21;;;;;;;;;;;;;;;;;;1048484;28;2381;-52
2022/08/29 01:25:52;;;;;;;;;;;;;;;;;;1048833;28;2684;-52
2022/08/29 01:26:25;;;;;;;;;;;;;;;;;;1048767;28;2393;-50
2022/08/29 01:26:56;;;;;;;;;;;;;;;;;;1048995;28;2499;-50
2022/08/29 01:27:28;;;;;;;;;;;;;;;;;;1048820;28;2892;-51
2022/08/29 01:28:10;;;;;;;;;;;;;;;;;;1048199;28;2922;-53
2022/08/29 01:28:42;;;;;;;;;;;;;;;;;;1048109;28;3108;-49
2022/08/29 01:29:13;;;;;;;;;;;;;;;;;;1047567;28;2178;-49
2022/08/29 01:29:44;;;;;;;;;;;;;;;;;;1048559;28;1903;-50
2022/08/29 01:30:14;;;;;;;;;;;;;;;;;;1049380;28;2848;-55
2022/08/29 01:31:11;;;;;;;;;;;;;;;;;;1049159;28;2348;-53
2022/08/29 01:31:42;;;;;;;;;;;;;;;;;;1045740;28;3102;-51
2022/08/29 01:32:13;;;;;;;;;;;;;;;;;;1048667;28;2377;-50
2022/08/29 01:32:43;;;;;;;;;;;;;;;;;;1051130;28;1911;-49
2022/08/29 01:33:13;;;;;;;;;;;;;;;;;;1049244;28;2774;-49
2022/08/29 01:33:48;;;;;;;;;;;;;;;;;;1050653;28;1992;-50
2022/08/29 01:34:19;;;;;;;;;;;;;;;;;;1047192;28;2460;-51
2022/08/29 01:34:50;;;;;;;;;;;;;;;;;;1047633;28;2684;-52
2022/08/29 01:35:20;;;;;;;;;;;;;;;;;;1048902;28;2372;-50
2022/08/29 01:35:51;;;;;;;;;;;;;;;;;;1048235;28;2730;-49
2022/08/29 01:36:23;;;;;;;;;;;;;;;;;;1047470;28;2353;-53
2022/08/29 01:36:58;;;;;;;;;;;;;;;;;;1048189;28;1968;-51
2022/08/29 01:37:30;;;;;;;;;;;;;;;;;;1047813;28;2380;-51
2022/08/29 01:38:00;;;;;;;;;;;;;;;;;;1049682;28;3210;-50
2022/08/29 01:38:31;;;;;;;;;;;;;;;;;;1049052;28;2144;-48
2022/08/29 01:39:01;;;;;;;;;;;;;;;;;;1045527;28;1846;-52
2022/08/29 01:39:33;;;;;;;;;;;;;;;;;;1044584;28;2135;-53
2022/08/29 01:40:04;;;;;;;;;;;;;;;;;;1044896;28;2349;-48
2022/08/29 01:40:34;;;;;;;;;;;;;;;;;;1049770;28;2464;-53
2022/08/29 01:41:04;;;;;;;;;;;;;;;;;;1047620;28;2802;-50
2022/08/29 01:41:42;;;;;;;;;;;;;;;;;;1049225;28;2096;-52
2022/08/29 01:42:21;;;;;;;;;;;;;;;;;;1052771;28;1989;-54
2022/08/29 01:42:51;;;;;;;;;;;;;;;;;;1051840;28;1817;-50
2022/08/29 01:43:22;;;;;;;;;;;;;;;;;;1052381;28;2370;-52
2022/08/29 01:43:54;;;;;;;;;;;;;;;;;;1048089;28;2277;-48
2022/08/29 01:44:25;;;;;;;;;;;;;;;;;;1046934;28;2657;-53
2022/08/29 01:44:56;;;;;;;;;;;;;;;;;;1047489;28;2771;-50
2022/08/29 01:45:26;;;;;;;;;;;;;;;;;;1048005;28;2712;-50
2022/08/29 01:45:57;;;;;;;;;;;;;;;;;;1052100;28;1683;-52
2022/08/29 01:46:29;;;;;;;;;;;;;;;;;;1051976;28;2409;-47
2022/08/29 01:46:59;;;;;;;;;;;;;;;;;;1052567;28;2418;-52
2022/08/29 01:47:31;;;;;;;;;;;;;;;;;;1053138;28;2760;-51
2022/08/29 01:48:01;;;;;;;;;;;;;;;;;;1053381;28;2804;-50
2022/08/29 01:48:31;;;;;;;;;;;;;;;;;;1051867;28;2321;-52
2022/08/29 01:49:03;;;;;;;;;;;;;;;;;;1052601;28;3639;-49
2022/08/29 01:49:34;;;;;;;;;;;;;;;;;;1052178;28;2931;-52
2022/08/29 01:50:07;;;;;;;;;;;;;;;;;;1054987;28;2493;-54
2022/08/29 01:50:38;;;;;;;;;;;;;;;;;;1052872;28;2277;-53
2022/08/29 01:51:09;;;;;;;;;;;;;;;;;;1054032;28;2472;-51
2022/08/29 01:51:40;;;;;;;;;;;;;;;;;;1053429;28;1679;-49
2022/08/29 01:52:11;;;;;;;;;;;;;;;;;;1053507;28;2366;-47
2022/08/29 01:52:42;;;;;;;;;;;;;;;;;;1051818;28;1527;-53
2022/08/29 01:53:12;;;;;;;;;;;;;;;;;;1051850;28;2306;-50
2022/08/29 01:53:43;;;;;;;;;;;;;;;;;;1051609;28;2438;-51
2022/08/29 01:54:14;;;;;;;;;;;;;;;;;;1053400;28;2562;-49
2022/08/29 01:54:44;;;;;;;;;;;;;;;;;;1051821;28;2844;-52
2022/08/29 01:55:14;;;;;;;;;;;;;;;;;;1053841;28;2920;-51
2022/08/29 01:55:45;;;;;;;;;;;;;;;;;;1052014;28;1939;-53
2022/08/29 01:56:17;;;;;;;;;;;;;;;;;;1052784;28;2313;-51
2022/08/29 01:56:50;;;;;;;;;;;;;;;;;;1051294;28;2929;-47
2022/08/29 01:57:21;;;;;;;;;;;;;;;;;;1052689;28;2493;-50
2022/08/29 01:57:51;;;;;;;;;;;;;;;;;;1051751;28;1779;-55
2022/08/29 01:58:21;;;;;;;;;;;;;;;;;;1052639;28;2410;-49
2022/08/29 01:58:52;;;;;;;;;;;;;;;;;;1053431;28;1794;-50
2022/08/29 01:59:25;;;;;;;;;;;;;;;;;;1051730;28;2330;-48
2022/08/29 01:59:56;;;;;;;;;;;;;;;;;;1048792;28;2093;-52
2022/08/29 02:00:26;;;;;;;;;;;;;;;;;;1047366;28;2255;-52
2022/08/29 02:00:57;;;;;;;;;;;;;;;;;;1050929;28;1320;-53
2022/08/29 02:01:35;;;;;;;;;;;;;;;;;;1048819;28;2393;-49
2022/08/29 02:02:15;;;;;;;;;;;;;;;;;;1054301;28;1793;-50
2022/08/29 02:02:45;;;;;;;;;;;;;;;;;;1052853;28;1532;-50
2022/08/29 02:03:16;;;;;;;;;;;;;;;;;;1053866;28;2476;-55
2022/08/29 02:03:47;;;;;;;;;;;;;;;;;;1047687;28;2102;-51
2022/08/29 02:04:17;;;;;;;;;;;;;;;;;;1047609;28;2477;-51
2022/08/29 02:04:48;;;;;;;;;;;;;;;;;;1047676;28;2887;-47
2022/08/29 02:05:21;;;;;;;;;;;;;;;;;;1048308;28;2458;-51
2022/08/29 02:05:52;;;;;;;;;;;;;;;;;;1048858;28;2783;-49
2022/08/29 02:06:22;;;;;;;;;;;;;;;;;;1049615;28;3196;-51
2022/08/29 02:06:54;;;;;;;;;;;;;;;;;;1048356;28;2900;-54
2022/08/29 02:07:24;;;;;;;;;;;;;;;;;;1048884;28;2413;-53
2022/08/29 02:07:55;;;;;;;;;;;;;;;;;;1052579;28;3173;-49
2022/08/29 02:08:26;;;;;;;;;;;;;;;;;;1048922;28;1982;-51
2022/08/29 02:08:57;;;;;;;;;;;;;;;;;;1048418;28;2323;-52
2022/08/29 02:09:27;;;;;;;;;;;;;;;;;;1049061;28;2992;-48
2022/08/29 02:10:05;;;;;;;;;;;;;;;;;;1051012;28;3166;-51
2022/08/29 02:10:35;;;;;;;;;;;;;;;;;;1052527;28;2912;-50
2022/08/29 02:11:08;;;;;;;;;;;;;;;;;;1052234;28;2217;-49
2022/08/29 02:11:39;;;;;;;;;;;;;;;;;;1051628;28;2299;-49
2022/08/29 02:12:09;;;;;;;;;;;;;;;;;;1053055;28;2910;-49
2022/08/29 02:12:40;;;;;;;;;;;;;;;;;;1051418;28;1973;-52
2022/08/29 02:13:10;;;;;;;;;;;;;;;;;;1052124;28;2013;-49
2022/08/29 02:13:44;;;;;;;;;;;;;;;;;;1052334;28;2939;-52
2022/08/29 02:14:14;;;;;;;;;;;;;;;;;;1052346;28;2711;-51
2022/08/29 02:14:45;;;;;;;;;;;;;;;;;;1055299;28;1979;-50
2022/08/29 02:15:17;;;;;;;;;;;;;;;;;;1051470;28;2428;-50
2022/08/29 02:15:47;;;;;;;;;;;;;;;;;;1055100;28;3202;-49
2022/08/29 02:16:18;;;;;;;;;;;;;;;;;;1052681;28;2357;-53
2022/08/29 02:16:48;;;;;;;;;;;;;;;;;;1053999;28;2510;-50
2022/08/29 02:17:18;;;;;;;;;;;;;;;;;;1053160;28;2632;-49
2022/08/29 02:17:49;;;;;;;;;;;;;;;;;;1054353;28;1728;-50
2022/08/29 02:18:20;;;;;;;;;;;;;;;;;;1052507;28;2433;-51
2022/08/29 02:18:50;;;;;;;;;;;;;;;;;;1052286;28;3016;-53
2022/08/29 02:19:21;;;;;;;;;;;;;;;;;;1053195;28;2453;-51
2022/08/29 02:19:51;;;;;;;;;;;;;;;;;;1052876;28;2115;-49
2022/08/29 02:20:21;;;;;;;;;;;;;;;;;;1052162;28;3008;-50
2022/08/29 02:20:51;;;;;;;;;;;;;;;;;;1051333;28;2811;-49
2022/08/29 02:21:22;;;;;;;;;;;;;;;;;;1052937;28;2425;-53
2022/08/29 02:21:53;;;;;;;;;;;;;;;;;;1053686;28;2867;-52
2022/08/29 02:22:23;;;;;;;;;;;;;;;;;;1053952;28;2689;-53
2022/08/29 02:22:53;;;;;;;;;;;;;;;;;;1052331;28;2602;-52
2022/08/29 02:23:24;;;;;;;;;;;;;;;;;;1052998;28;2938;-49
2022/08/29 02:23:56;;;;;;;;;;;;;;;;;;1050925;28;2131;-52
2022/08/29 02:24:27;;;;;;;;;;;;;;;;;;1051271;28;2952;-48
2022/08/29 02:24:57;;;;;;;;;;;;;;;;;;1052711;28;2941;-53
2022/08/29 02:25:45;;;;;;;;;;;;;;;;;;1052579;28;2570;-49
2022/08/29 02:26:16;;;;;;;;;;;;;;;;;;1052762;28;2365;-49
2022/08/29 02:26:46;;;;;;;;;;;;;;;;;;1053268;28;2885;-51
2022/08/29 02:27:16;;;;;;;;;;;;;;;;;;1049703;28;2322;-51
2022/08/29 02:27:47;;;;;;;;;;;;;;;;;;1048717;28;2328;-50
2022/08/29 02:28:18;;;;;;;;;;;;;;;;;;1048425;28;2363;-48
2022/08/29 02:28:52;;;;;;;;;;;;;;;;;;1048873;28;2974;-49
2022/08/29 02:29:23;;;;;;;;;;;;;;;;;;1053212;28;2176;-54
2022/08/29 02:29:53;;;;;;;;;;;;;;;;;;1052528;28;2408;-52
2022/08/29 02:30:24;;;;;;;;;;;;;;;;;;1052195;28;2639;-49
2022/08/29 02:30:55;;;;;;;;;;;;;;;;;;1052126;28;1473;-48
2022/08/29 02:31:25;;;;;;;;;;;;;;;;;;1052034;28;2368;-54
2022/08/29 02:31:55;;;;;;;;;;;;;;;;;;1051848;28;2936;-50
2022/08/29 02:32:25;;;;;;;;;;;;;;;;;;1052447;28;2771;-50
2022/08/29 02:32:56;;;;;;;;;;;;;;;;;;1052068;28;1662;-50
2022/08/29 02:33:26;;;;;;;;;;;;;;;;;;1050950;28;2393;-48
2022/08/29 02:33:56;;;;;;;;;;;;;;;;;;1054815;28;3023;-50
2022/08/29 02:34:29;;;;;;;;;;;;;;;;;;1052105;28;2475;-51
2022/08/29 02:35:00;;;;;;;;;;;;;;;;;;1052760;28;2265;-49
2022/08/29 02:35:30;;;;;;;;;;;;;;;;;;1054893;28;2895;-47
2022/08/29 02:36:01;;;;;;;;;;;;;;;;;;1055137;28;2303;-50
2022/08/29 02:36:31;;;;;;;;;;;;;;;;;;1054148;28;2833;-52
2022/08/29 02:37:02;;;;;;;;;;;;;;;;;;1050784;28;1791;-48
2022/08/29 02:37:32;;;;;;;;;;;;;;;;;;1052975;28;1940;-53
2022/08/29 02:38:03;;;;;;;;;;;;;;;;;;1051420;28;1987;-51
2022/08/29 02:38:33;;;;;;;;;;;;;;;;;;1051621;28;2330;-52
2022/08/29 02:39:04;;;;;;;;;;;;;;;;;;1051450;28;2309;-52
2022/08/29 02:39:34;;;;;;;;;;;;;;;;;;1052411;28;3036;-53
2022/08/29 02:40:05;;;;;;;;;;;;;;;;;;1051199;28;1972;-51
2022/08/29 02:40:36;;;;;;;;;;;;;;;;;;1052515;28;2294;-53
2022/08/29 02:41:06;;;;;;;;;;;;;;;;;;1052408;28;2291;-48
2022/08/29 02:41:43;;;;;;;;;;;;;;;;;;1050357;28;2096;-53
2022/08/29 02:42:20;;;;;;;;;;;;;;;;;;1053197;28;2340;-53
2022/08/29 02:42:57;;;;;;;;;;;;;;;;;;1051730;28;1694;-51
2022/08/29 02:43:28;;;;;;;;;;;;;;;;;;1050912;28;2402;-48
2022/08/29 02:43:58;;;;;;;;;;;;;;;;;;1052622;28;2471;-52
2022/08/29 02:44:30;;;;;;;;;;;;;;;;;;1051717;28;1993;-51
2022/08/29 02:45:00;;;;;;;;;;;;;;;;;;1054506;28;1720;-54
2022/08/29 02:45:31;;;;;;;;;;;;;;;;;;1051363;28;2393;-49
2022/08/29 02:46:01;;;;;;;;;;;;;;;;;;1053904;28;1976;-50
2022/08/29 02:46:32;;;;;;;;;;;;;;;;;;1053193;28;2649;-50
2022/08/29 02:47:02;;;;;;;;;;;;;;;;;;1051922;28;2374;-50
2022/08/29 02:47:35;;;;;;;;;;;;;;;;;;1051608;28;2483;-52
2022/08/29 02:48:06;;;;;;;;;;;;;;;;;;1052650;28;2191;-48
2022/08/29 02:48:36;;;;;;;;;;;;;;;;;;1052531;28;2643;-47
2022/08/29 02:49:06;;;;;;;;;;;;;;;;;;1052285;28;2507;-49
2022/08/29 02:49:38;;;;;;;;;;;;;;;;;;1051624;28;2556;-51
2022/08/29 02:50:09;;;;;;;;;;;;;;;;;;1051473;28;2305;-51
2022/08/29 02:50:44;;;;;;;;;;;;;;;;;;1051607;28;2380;-52
2022/08/29 02:51:19;;;;;;;;;;;;;;;;;;1051704;28;2374;-51
2022/08/29 02:51:49;;;;;;;;;;;;;;;;;;1052648;28;3038;-47
2022/08/29 02:52:19;;;;;;;;;;;;;;;;;;1051806;28;2337;-55
2022/08/29 02:52:50;;;;;;;;;;;;;;;;;;1055181;28;2219;-50
2022/08/29 02:53:23;;;;;;;;;;;;;;;;;;1045938;28;2416;-48
2022/08/29 02:53:53;;;;;;;;;;;;;;;;;;1046059;28;1824;-52
2022/08/29 02:54:24;;;;;;;;;;;;;;;;;;1040002;28;2894;-50
2022/08/29 02:54:54;;;;;;;;;;;;;;;;;;1043569;28;1910;-52
2022/08/29 02:55:25;;;;;;;;;;;;;;;;;;1048760;28;2385;-49
2022/08/29 02:55:55;;;;;;;;;;;;;;;;;;1048259;28;3062;-53
2022/08/29 02:56:26;;;;;;;;;;;;;;;;;;1052144;28;2665;-51
2022/08/29 02:56:56;;;;;;;;;;;;;;;;;;1048525;28;3085;-51
2022/08/29 02:57:26;;;;;;;;;;;;;;;;;;1048678;28;2897;-52
2022/08/29 02:57:57;;;;;;;;;;;;;;;;;;1048665;28;3467;-51
2022/08/29 02:58:28;;;;;;;;;;;;;;;;;;1048260;28;3051;-52
2022/08/29 02:59:00;;;;;;;;;;;;;;;;;;1052889;28;2958;-51
2022/08/29 02:59:30;;;;;;;;;;;;;;;;;;1052582;28;2940;-50
2022/08/29 03:00:00;;;;;;;;;;;;;;;;;;1051803;28;3355;-53
2022/08/29 03:00:32;;;;;;;;;;;;;;;;;;1053547;28;3223;-48
2022/08/29 03:01:02;;;;;;;;;;;;;;;;;;1054496;28;2158;-54
2022/08/29 03:01:32;;;;;;;;;;;;;;;;;;1050001;28;2587;-53
2022/08/29 03:02:03;;;;;;;;;;;;;;;;;;1051604;28;2449;-52
2022/08/29 03:02:33;;;;;;;;;;;;;;;;;;1051339;28;1681;-50
2022/08/29 03:03:10;;;;;;;;;;;;;;;;;;1050853;28;2419;-53
2022/08/29 03:03:40;;;;;;;;;;;;;;;;;;1052699;28;2986;-48
2022/08/29 03:04:11;;;;;;;;;;;;;;;;;;1050569;28;2175;-50
2022/08/29 03:04:41;;;;;;;;;;;;;;;;;;1051977;28;2969;-52
2022/08/29 03:05:12;;;;;;;;;;;;;;;;;;1052613;28;2348;-52
2022/08/29 03:05:42;;;;;;;;;;;;;;;;;;1052590;28;3019;-51
2022/08/29 03:06:13;;;;;;;;;;;;;;;;;;1052071;28;2455;-52
2022/08/29 03:06:43;;;;;;;;;;;;;;;;;;1053472;28;2348;-53
2022/08/29 03:07:13;;;;;;;;;;;;;;;;;;1049240;28;2409;-49
2022/08/29 03:07:44;;;;;;;;;;;;;;;;;;1048134;28;2612;-52
2022/08/29 03:08:14;;;;;;;;;;;;;;;;;;1046248;28;2371;-53
2022/08/29 03:08:45;;;;;;;;;;;;;;;;;;1041077;28;2754;-49
2022/08/29 03:09:15;;;;;;;;;;;;;;;;;;1044608;28;2126;-53
2022/08/29 03:09:45;;;;;;;;;;;;;;;;;;1045101;28;2891;-51
2022/08/29 03:10:16;;;;;;;;;;;;;;;;;;1050978;28;2432;-54
2022/08/29 03:10:46;;;;;;;;;;;;;;;;;;1050910;28;2438;-48
2022/08/29 03:11:16;;;;;;;;;;;;;;;;;;1051761;28;2390;-53
2022/08/29 03:11:46;;;;;;;;;;;;;;;;;;1046749;28;2881;-50
2022/08/29 03:12:17;;;;;;;;;;;;;;;;;;1047638;28;2726;-52
2022/08/29 03:12:48;;;;;;;;;;;;;;;;;;1049177;28;1724;-55
2022/08/29 03:13:19;;;;;;;;;;;;;;;;;;1048692;28;2393;-50
2022/08/29 03:13:49;;;;;;;;;;;;;;;;;;1051664;28;2978;-49
2022/08/29 03:14:19;;;;;;;;;;;;;;;;;;1052539;28;2474;-53
2022/08/29 03:14:50;;;;;;;;;;;;;;;;;;1051752;28;2341;-53
2022/08/29 03:15:20;;;;;;;;;;;;;;;;;;1052220;28;2367;-49
2022/08/29 03:15:51;;;;;;;;;;;;;;;;;;1051379;28;2474;-52
2022/08/29 03:16:21;;;;;;;;;;;;;;;;;;1050675;28;2364;-53
2022/08/29 03:16:51;;;;;;;;;;;;;;;;;;1053733;28;1900;-50
2022/08/29 03:17:21;;;;;;;;;;;;;;;;;;1048200;28;2299;-51
2022/08/29 03:17:53;;;;;;;;;;;;;;;;;;1048391;28;2072;-51
2022/08/29 03:18:23;;;;;;;;;;;;;;;;;;1049556;28;1842;-49
2022/08/29 03:18:53;;;;;;;;;;;;;;;;;;1049822;28;2640;-52
2022/08/29 03:19:24;;;;;;;;;;;;;;;;;;1051404;28;2711;-50
2022/08/29 03:19:56;;;;;;;;;;;;;;;;;;1051610;28;2087;-51
2022/08/29 03:20:27;;;;;;;;;;;;;;;;;;1051275;28;2296;-50
2022/08/29 03:20:58;;;;;;;;;;;;;;;;;;1053378;28;3055;-50
2022/08/29 03:21:28;;;;;;;;;;;;;;;;;;1051661;28;2965;-52
2022/08/29 03:21:59;;;;;;;;;;;;;;;;;;1049367;28;1429;-52
2022/08/29 03:22:29;;;;;;;;;;;;;;;;;;1049157;28;3048;-51
2022/08/29 03:22:59;;;;;;;;;;;;;;;;;;1047407;28;2022;-52
2022/08/29 03:23:30;;;;;;;;;;;;;;;;;;1049526;28;2390;-52
2022/08/29 03:24:00;;;;;;;;;;;;;;;;;;1051120;28;2717;-52
2022/08/29 03:24:33;;;;;;;;;;;;;;;;;;1047730;28;2849;-53
2022/08/29 03:25:04;;;;;;;;;;;;;;;;;;1046852;28;2317;-50
2022/08/29 03:25:34;;;;;;;;;;;;;;;;;;1049164;28;2767;-52
2022/08/29 03:26:05;;;;;;;;;;;;;;;;;;1048081;28;3207;-51
2022/08/29 03:26:35;;;;;;;;;;;;;;;;;;1052532;28;2381;-49
2022/08/29 03:27:06;;;;;;;;;;;;;;;;;;1051897;28;2219;-51
2022/08/29 03:27:37;;;;;;;;;;;;;;;;;;1051613;28;2673;-50
2022/08/29 03:28:07;;;;;;;;;;;;;;;;;;1051288;28;2354;-48
2022/08/29 03:28:37;;;;;;;;;;;;;;;;;;1051797;28;2889;-52
2022/08/29 03:29:08;;;;;;;;;;;;;;;;;;1054112;28;2913;-48
2022/08/29 03:29:38;;;;;;;;;;;;;;;;;;1050369;28;1764;-53
2022/08/29 03:30:16;;;;;;;;;;;;;;;;;;1047678;28;2471;-51
2022/08/29 03:30:46;;;;;;;;;;;;;;;;;;1047388;28;2917;-49
2022/08/29 03:31:16;;;;;;;;;;;;;;;;;;1048207;28;2298;-49
2022/08/29 03:31:47;;;;;;;;;;;;;;;;;;1050306;28;1943;-51
2022/08/29 03:32:24;;;;;;;;;;;;;;;;;;1052007;28;3036;-52
2022/08/29 03:32:55;;;;;;;;;;;;;;;;;;1052745;28;2904;-49
2022/08/29 03:33:25;;;;;;;;;;;;;;;;;;1052837;28;2386;-49
2022/08/29 03:33:55;;;;;;;;;;;;;;;;;;1051213;28;1635;-52
2022/08/29 03:34:26;;;;;;;;;;;;;;;;;;1051138;28;2530;-53
2022/08/29 03:34:57;;;;;;;;;;;;;;;;;;1048647;28;2483;-50
2022/08/29 03:35:27;;;;;;;;;;;;;;;;;;1048200;28;3026;-50
2022/08/29 03:35:57;;;;;;;;;;;;;;;;;;1048658;28;1978;-49
2022/08/29 03:36:28;;;;;;;;;;;;;;;;;;1046810;28;3091;-51
2022/08/29 03:36:58;;;;;;;;;;;;;;;;;;1048425;28;2417;-50
2022/08/29 03:37:28;;;;;;;;;;;;;;;;;;1048683;28;2289;-54
2022/08/29 03:37:59;;;;;;;;;;;;;;;;;;1047191;28;1692;-50
2022/08/29 03:38:29;;;;;;;;;;;;;;;;;;1048339;28;3117;-51
2022/08/29 03:38:59;;;;;;;;;;;;;;;;;;1046187;28;2131;-50
2022/08/29 03:39:30;;;;;;;;;;;;;;;;;;1047076;28;3257;-48
2022/08/29 03:40:00;;;;;;;;;;;;;;;;;;1049488;28;1840;-55
2022/08/29 03:40:31;;;;;;;;;;;;;;;;;;1045661;28;2412;-50
2022/08/29 03:41:01;;;;;;;;;;;;;;;;;;1043783;28;2981;-52